createdAt,value
2023-03-25T00:00:17.232Z,995.14
2023-03-25T00:00:49.647Z,995.16
2023-03-25T00:01:22.094Z,995.11
2023-03-25T00:01:54.558Z,995.16
2023-03-25T00:02:27.065Z,995.22
2023-03-25T00:02:59.605Z,995.22
2023-03-25T00:03:31.962Z,995.22
2023-03-25T00:04:04.513Z,995.17
2023-03-25T00:04:36.946Z,995.12
2023-03-25T00:05:09.417Z,995.15
2023-03-25T00:05:41.869Z,995.15
2023-03-25T00:06:14.328Z,995.13
2023-03-25T00:06:46.808Z,995.21
2023-03-25T00:07:19.289Z,995.14
2023-03-25T00:07:51.783Z,995.15
2023-03-25T00:08:24.228Z,995.07
2023-03-25T00:08:56.710Z,995.06
2023-03-25T00:09:29.184Z,995.12
2023-03-25T00:10:01.641Z,995.12
2023-03-25T00:10:34.106Z,995.12
2023-03-25T00:11:06.555Z,995.12
2023-03-25T00:11:39.038Z,995.09
2023-03-25T00:12:11.477Z,995.14
2023-03-25T00:12:43.914Z,995.12
2023-03-25T00:13:16.385Z,995.12
2023-03-25T00:13:48.838Z,995.09
2023-03-25T00:14:21.302Z,995.14
2023-03-25T00:14:53.777Z,995.09
2023-03-25T00:15:26.230Z,995.10
2023-03-25T00:15:58.702Z,995.11
2023-03-25T00:16:31.209Z,995.08
2023-03-25T00:17:03.630Z,995.15
2023-03-25T00:17:36.129Z,995.15
2023-03-25T00:18:08.520Z,995.13
2023-03-25T00:18:40.948Z,995.18
2023-03-25T00:19:13.421Z,995.14
2023-03-25T00:19:45.882Z,995.14
2023-03-25T00:20:18.322Z,995.19
2023-03-25T00:20:50.752Z,995.17
2023-03-25T00:21:23.215Z,995.15
2023-03-25T00:21:55.705Z,995.16
2023-03-25T00:22:28.166Z,995.15
2023-03-25T00:23:00.674Z,995.13
2023-03-25T00:23:33.139Z,995.12
2023-03-25T00:24:05.644Z,995.09
2023-03-25T00:24:38.073Z,995.11
2023-03-25T00:25:10.525Z,995.12
2023-03-25T00:25:42.972Z,995.08
2023-03-25T00:26:15.441Z,995.11
2023-03-25T00:26:47.903Z,995.05
2023-03-25T00:27:20.372Z,995.09
2023-03-25T00:27:52.776Z,995.15
2023-03-25T00:28:25.231Z,995.07
2023-03-25T00:28:57.683Z,995.05
2023-03-25T00:29:30.137Z,995.12
2023-03-25T00:30:02.631Z,995.10
2023-03-25T00:30:35.117Z,995.06
2023-03-25T00:31:07.530Z,995.12
2023-03-25T00:31:39.993Z,995.17
2023-03-25T00:32:12.460Z,995.11
2023-03-25T00:32:44.982Z,995.10
2023-03-25T00:33:17.400Z,995.19
2023-03-25T00:33:49.854Z,995.15
2023-03-25T00:34:22.289Z,995.13
2023-03-25T00:34:54.735Z,995.18
2023-03-25T00:35:27.284Z,995.14
2023-03-25T00:35:59.717Z,995.16
2023-03-25T00:36:32.118Z,995.17
2023-03-25T00:37:04.562Z,995.10
2023-03-25T00:37:36.985Z,995.18
2023-03-25T00:38:09.412Z,995.29
2023-03-25T00:38:41.899Z,995.14
2023-03-25T00:39:14.358Z,995.17
2023-03-25T00:39:46.832Z,995.12
2023-03-25T00:40:19.301Z,995.13
2023-03-25T00:40:51.723Z,995.17
2023-03-25T00:41:24.164Z,995.24
2023-03-25T00:41:56.641Z,995.19
2023-03-25T00:42:29.128Z,995.18
2023-03-25T00:43:01.602Z,995.20
2023-03-25T00:43:34.108Z,995.23
2023-03-25T00:44:06.558Z,995.27
2023-03-25T00:44:39.004Z,995.19
2023-03-25T00:45:11.484Z,995.22
2023-03-25T00:45:43.961Z,995.20
2023-03-25T00:46:16.439Z,995.22
2023-03-25T00:46:48.885Z,995.25
2023-03-25T00:47:21.306Z,995.20
2023-03-25T00:47:53.874Z,995.23
2023-03-25T00:48:26.228Z,995.23
2023-03-25T00:48:58.683Z,995.25
2023-03-25T00:49:31.127Z,995.27
2023-03-25T00:50:03.604Z,995.28
2023-03-25T00:50:36.084Z,995.34
2023-03-25T00:51:08.513Z,995.21
2023-03-25T00:51:52.680Z,995.25
2023-03-25T00:52:13.391Z,995.27
2023-03-25T00:52:45.832Z,995.27
2023-03-25T00:53:18.297Z,995.25
2023-03-25T00:53:50.747Z,995.23
2023-03-25T00:54:23.201Z,995.24
2023-03-25T00:54:55.651Z,995.25
2023-03-25T00:55:28.083Z,995.22
2023-03-25T00:56:00.561Z,995.24
2023-03-25T00:56:33.035Z,995.26
2023-03-25T00:57:05.528Z,995.19
2023-03-25T00:57:37.940Z,995.21
2023-03-25T00:58:10.398Z,995.17
2023-03-25T00:58:42.815Z,995.17
2023-03-25T00:59:15.300Z,995.14
2023-03-25T00:59:47.791Z,995.14
2023-03-25T01:00:20.259Z,995.14
2023-03-25T01:00:52.717Z,995.06
2023-03-25T01:01:25.195Z,995.09
2023-03-25T01:01:57.684Z,995.11
2023-03-25T01:02:30.130Z,995.14
2023-03-25T01:03:02.568Z,995.15
2023-03-25T01:03:35.090Z,995.23
2023-03-25T01:04:07.443Z,995.15
2023-03-25T01:04:41.594Z,995.18
2023-03-25T01:05:12.311Z,995.10
2023-03-25T01:05:44.767Z,995.19
2023-03-25T01:06:17.220Z,995.16
2023-03-25T01:06:49.654Z,995.18
2023-03-25T01:07:22.080Z,995.18
2023-03-25T01:07:54.526Z,995.15
2023-03-25T01:08:26.994Z,995.16
2023-03-25T01:08:59.447Z,995.13
2023-03-25T01:09:31.918Z,995.16
2023-03-25T01:10:04.378Z,995.16
2023-03-25T01:10:36.835Z,995.16
2023-03-25T01:11:09.301Z,995.14
2023-03-25T01:11:41.755Z,995.13
2023-03-25T01:12:14.184Z,995.16
2023-03-25T01:12:46.666Z,995.15
2023-03-25T01:13:19.125Z,995.11
2023-03-25T01:13:51.567Z,995.09
2023-03-25T01:14:24.050Z,995.12
2023-03-25T01:14:56.521Z,995.09
2023-03-25T01:15:29.061Z,995.06
2023-03-25T01:16:01.561Z,995.06
2023-03-25T01:16:33.983Z,995.06
2023-03-25T01:17:06.437Z,995.05
2023-03-25T01:17:38.939Z,995.04
2023-03-25T01:18:11.335Z,995.07
2023-03-25T01:18:43.811Z,995.05
2023-03-25T01:19:16.252Z,995.06
2023-03-25T01:19:48.720Z,995.02
2023-03-25T01:20:21.181Z,995.08
2023-03-25T01:20:53.685Z,995.05
2023-03-25T01:21:26.204Z,995.08
2023-03-25T01:21:58.661Z,995.03
2023-03-25T01:22:31.150Z,995.03
2023-03-25T01:23:03.637Z,995.01
2023-03-25T01:23:36.080Z,995.01
2023-03-25T01:24:08.629Z,995.05
2023-03-25T01:24:41.104Z,995.00
2023-03-25T01:25:13.523Z,994.96
2023-03-25T01:25:46.017Z,994.98
2023-03-25T01:26:18.529Z,994.99
2023-03-25T01:26:50.991Z,994.96
2023-03-25T01:27:23.454Z,994.98
2023-03-25T01:27:55.886Z,995.00
2023-03-25T01:28:28.379Z,995.02
2023-03-25T01:29:00.886Z,995.03
2023-03-25T01:29:33.380Z,994.99
2023-03-25T01:30:05.817Z,995.06
2023-03-25T01:30:38.244Z,995.02
2023-03-25T01:31:10.778Z,995.08
2023-03-25T01:31:43.267Z,995.05
2023-03-25T01:32:15.673Z,995.05
2023-03-25T01:32:48.171Z,995.10
2023-03-25T01:33:20.553Z,995.02
2023-03-25T01:33:52.972Z,995.04
2023-03-25T01:34:25.422Z,995.06
2023-03-25T01:34:57.920Z,995.03
2023-03-25T01:35:30.478Z,995.02
2023-03-25T01:36:02.863Z,995.02
2023-03-25T01:36:35.366Z,995.03
2023-03-25T01:37:07.889Z,995.05
2023-03-25T01:37:40.332Z,995.05
2023-03-25T01:38:12.918Z,995.01
2023-03-25T01:38:45.720Z,995.01
2023-03-25T01:39:18.667Z,995.00
2023-03-25T01:39:51.234Z,995.03
2023-03-25T01:40:23.985Z,995.02
2023-03-25T01:40:56.763Z,995.00
2023-03-25T01:41:35.756Z,994.99
2023-03-25T01:42:01.690Z,994.96
2023-03-25T01:42:34.155Z,994.93
2023-03-25T01:43:06.650Z,994.91
2023-03-25T01:43:39.143Z,994.99
2023-03-25T01:44:11.609Z,994.91
2023-03-25T01:44:44.091Z,994.98
2023-03-25T01:45:16.553Z,994.90
2023-03-25T01:45:49.433Z,994.95
2023-03-25T01:46:21.626Z,994.91
2023-03-25T01:46:54.509Z,994.88
2023-03-25T01:47:26.799Z,994.92
2023-03-25T01:47:59.132Z,994.98
2023-03-25T01:48:31.580Z,994.92
2023-03-25T01:49:04.079Z,994.96
2023-03-25T01:49:36.556Z,994.95
2023-03-25T01:50:08.997Z,994.93
2023-03-25T01:50:41.445Z,994.97
2023-03-25T01:51:13.899Z,994.88
2023-03-25T01:51:46.336Z,994.92
2023-03-25T01:52:18.863Z,994.91
2023-03-25T01:52:51.295Z,994.95
2023-03-25T01:53:23.759Z,994.92
2023-03-25T01:53:56.240Z,994.89
2023-03-25T01:54:28.673Z,994.92
2023-03-25T01:55:01.227Z,994.90
2023-03-25T01:55:33.668Z,994.85
2023-03-25T01:56:06.146Z,994.91
2023-03-25T01:56:38.640Z,994.86
2023-03-25T01:57:11.097Z,994.92
2023-03-25T01:57:43.494Z,994.88
2023-03-25T01:58:15.940Z,994.91
2023-03-25T01:58:48.441Z,994.94
2023-03-25T01:59:20.890Z,994.87
2023-03-25T01:59:53.375Z,994.90
2023-03-25T02:00:25.911Z,994.93
2023-03-25T02:00:58.361Z,994.94
2023-03-25T02:01:30.802Z,994.90
2023-03-25T02:02:03.229Z,994.92
2023-03-25T02:02:35.714Z,994.82
2023-03-25T02:03:08.207Z,994.84
2023-03-25T02:03:40.708Z,994.87
2023-03-25T02:04:13.126Z,994.91
2023-03-25T02:04:45.556Z,994.86
2023-03-25T02:05:18.012Z,994.87
2023-03-25T02:05:50.694Z,994.84
2023-03-25T02:06:22.973Z,994.90
2023-03-25T02:06:55.438Z,994.86
2023-03-25T02:07:27.875Z,994.89
2023-03-25T02:08:00.311Z,994.90
2023-03-25T02:08:32.768Z,994.92
2023-03-25T02:09:05.295Z,994.80
2023-03-25T02:09:37.770Z,994.84
2023-03-25T02:10:10.222Z,994.82
2023-03-25T02:10:42.713Z,994.85
2023-03-25T02:11:15.187Z,994.92
2023-03-25T02:11:47.672Z,994.81
2023-03-25T02:12:20.119Z,994.82
2023-03-25T02:12:52.591Z,994.88
2023-03-25T02:13:25.069Z,994.83
2023-03-25T02:13:57.531Z,994.80
2023-03-25T02:14:30.010Z,994.81
2023-03-25T02:15:02.467Z,994.78
2023-03-25T02:15:34.929Z,994.82
2023-03-25T02:16:07.448Z,994.83
2023-03-25T02:16:39.913Z,994.83
2023-03-25T02:17:12.366Z,994.78
2023-03-25T02:17:44.867Z,994.80
2023-03-25T02:18:17.274Z,994.80
2023-03-25T02:18:49.758Z,994.75
2023-03-25T02:19:22.237Z,994.80
2023-03-25T02:19:54.762Z,994.89
2023-03-25T02:20:27.224Z,994.94
2023-03-25T02:20:59.675Z,994.88
2023-03-25T02:21:32.125Z,994.70
2023-03-25T02:22:04.601Z,994.81
2023-03-25T02:22:37.082Z,994.76
2023-03-25T02:23:09.564Z,994.71
2023-03-25T02:23:42.074Z,994.75
2023-03-25T02:24:14.526Z,994.73
2023-03-25T02:24:46.991Z,994.79
2023-03-25T02:25:19.435Z,994.83
2023-03-25T02:25:52.164Z,994.79
2023-03-25T02:26:24.391Z,994.81
2023-03-25T02:26:56.847Z,994.79
2023-03-25T02:27:29.352Z,994.79
2023-03-25T02:28:01.814Z,994.75
2023-03-25T02:28:34.245Z,994.80
2023-03-25T02:29:06.703Z,994.70
2023-03-25T02:29:39.179Z,994.80
2023-03-25T02:30:11.718Z,994.75
2023-03-25T02:30:44.202Z,994.68
2023-03-25T02:31:16.724Z,994.71
2023-03-25T02:31:49.281Z,994.73
2023-03-25T02:32:21.690Z,994.79
2023-03-25T02:32:54.231Z,994.75
2023-03-25T02:33:26.654Z,994.80
2023-03-25T02:33:59.128Z,994.76
2023-03-25T02:34:31.624Z,994.68
2023-03-25T02:35:04.114Z,994.72
2023-03-25T02:35:36.628Z,994.79
2023-03-25T02:36:09.016Z,994.84
2023-03-25T02:36:41.525Z,994.76
2023-03-25T02:37:13.947Z,994.76
2023-03-25T02:37:46.405Z,994.69
2023-03-25T02:38:18.888Z,994.74
2023-03-25T02:38:51.374Z,994.73
2023-03-25T02:39:23.826Z,994.74
2023-03-25T02:39:56.302Z,994.76
2023-03-25T02:40:28.757Z,994.69
2023-03-25T02:41:01.234Z,994.73
2023-03-25T02:41:33.725Z,994.69
2023-03-25T02:42:06.224Z,994.66
2023-03-25T02:42:38.718Z,994.69
2023-03-25T02:43:11.150Z,994.70
2023-03-25T02:43:43.722Z,994.64
2023-03-25T02:44:16.208Z,994.74
2023-03-25T02:44:48.698Z,994.72
2023-03-25T02:45:21.170Z,994.75
2023-03-25T02:45:53.903Z,994.73
2023-03-25T02:46:26.156Z,994.68
2023-03-25T02:46:58.561Z,994.75
2023-03-25T02:47:31.048Z,994.70
2023-03-25T02:48:03.517Z,994.72
2023-03-25T02:48:35.932Z,994.69
2023-03-25T02:49:08.377Z,994.72
2023-03-25T02:49:40.859Z,994.73
2023-03-25T02:50:13.299Z,994.70
2023-03-25T02:50:45.759Z,994.67
2023-03-25T02:51:18.254Z,994.71
2023-03-25T02:51:50.716Z,994.72
2023-03-25T02:52:23.167Z,994.73
2023-03-25T02:52:55.625Z,994.72
2023-03-25T02:53:28.114Z,994.78
2023-03-25T02:54:00.612Z,994.76
2023-03-25T02:54:33.086Z,994.71
2023-03-25T02:55:05.621Z,994.77
2023-03-25T02:55:38.103Z,994.74
2023-03-25T02:56:10.579Z,994.77
2023-03-25T02:56:43.098Z,994.75
2023-03-25T02:57:15.534Z,994.77
2023-03-25T02:57:47.993Z,994.77
2023-03-25T02:58:20.447Z,994.74
2023-03-25T02:58:52.925Z,994.78
2023-03-25T02:59:25.350Z,994.77
2023-03-25T02:59:57.830Z,994.73
2023-03-25T03:00:30.313Z,994.78
2023-03-25T03:01:02.820Z,994.77
2023-03-25T03:01:35.253Z,994.75
2023-03-25T03:02:07.745Z,994.77
2023-03-25T03:02:40.239Z,994.80
2023-03-25T03:03:12.658Z,994.84
2023-03-25T03:03:45.092Z,994.84
2023-03-25T03:04:17.578Z,994.84
2023-03-25T03:04:50.038Z,994.83
2023-03-25T03:05:22.553Z,994.74
2023-03-25T03:05:55.012Z,994.73
2023-03-25T03:06:27.458Z,994.69
2023-03-25T03:07:00.074Z,994.71
2023-03-25T03:07:32.545Z,994.65
2023-03-25T03:08:05.030Z,994.66
2023-03-25T03:08:37.574Z,994.66
2023-03-25T03:09:10.036Z,994.62
2023-03-25T03:09:42.503Z,994.60
2023-03-25T03:10:14.978Z,994.65
2023-03-25T03:10:47.450Z,994.66
2023-03-25T03:11:19.882Z,994.63
2023-03-25T03:11:52.309Z,994.64
2023-03-25T03:12:24.782Z,994.58
2023-03-25T03:12:57.274Z,994.61
2023-03-25T03:13:29.745Z,994.65
2023-03-25T03:14:02.231Z,994.67
2023-03-25T03:14:34.726Z,994.69
2023-03-25T03:15:07.184Z,994.68
2023-03-25T03:15:39.652Z,994.69
2023-03-25T03:16:12.211Z,994.73
2023-03-25T03:16:44.715Z,994.71
2023-03-25T03:17:17.125Z,994.73
2023-03-25T03:17:49.568Z,994.69
2023-03-25T03:18:22.083Z,994.71
2023-03-25T03:18:54.436Z,994.68
2023-03-25T03:19:26.922Z,994.69
2023-03-25T03:19:59.378Z,994.69
2023-03-25T03:20:31.882Z,994.69
2023-03-25T03:21:04.360Z,994.68
2023-03-25T03:21:36.795Z,994.69
2023-03-25T03:22:09.242Z,994.65
2023-03-25T03:22:41.711Z,994.67
2023-03-25T03:23:14.177Z,994.59
2023-03-25T03:23:46.596Z,994.59
2023-03-25T03:24:19.119Z,994.56
2023-03-25T03:24:51.584Z,994.56
2023-03-25T03:25:24.012Z,994.56
2023-03-25T03:25:56.604Z,994.56
2023-03-25T03:26:29.080Z,994.55
2023-03-25T03:27:01.516Z,994.61
2023-03-25T03:27:34.066Z,994.58
2023-03-25T03:28:06.417Z,994.62
2023-03-25T03:28:38.922Z,994.64
2023-03-25T03:29:11.381Z,994.63
2023-03-25T03:29:43.861Z,994.61
2023-03-25T03:30:16.339Z,994.59
2023-03-25T03:30:48.827Z,994.61
2023-03-25T03:31:48.362Z,994.63
2023-03-25T03:32:06.599Z,994.58
2023-03-25T03:32:26.325Z,994.56
2023-03-25T03:32:58.683Z,994.57
2023-03-25T03:33:31.101Z,994.64
2023-03-25T03:34:03.541Z,994.67
2023-03-25T03:34:36.037Z,994.62
2023-03-25T03:35:08.493Z,994.72
2023-03-25T03:35:40.995Z,994.68
2023-03-25T03:36:13.424Z,994.65
2023-03-25T03:36:45.900Z,994.66
2023-03-25T03:37:18.366Z,994.70
2023-03-25T03:37:50.785Z,994.69
2023-03-25T03:38:23.225Z,994.67
2023-03-25T03:38:55.716Z,994.68
2023-03-25T03:39:28.147Z,994.65
2023-03-25T03:40:00.626Z,994.62
2023-03-25T03:40:33.055Z,994.65
2023-03-25T03:41:05.521Z,994.72
2023-03-25T03:41:37.964Z,994.67
2023-03-25T03:42:10.387Z,994.63
2023-03-25T03:42:42.852Z,994.68
2023-03-25T03:43:15.321Z,994.63
2023-03-25T03:43:47.793Z,994.62
2023-03-25T03:44:20.278Z,994.60
2023-03-25T03:44:52.740Z,994.59
2023-03-25T03:45:25.217Z,994.58
2023-03-25T03:45:57.706Z,994.57
2023-03-25T03:46:30.236Z,994.58
2023-03-25T03:47:02.672Z,994.60
2023-03-25T03:47:35.143Z,994.56
2023-03-25T03:48:07.614Z,994.59
2023-03-25T03:48:40.056Z,994.57
2023-03-25T03:49:12.475Z,994.53
2023-03-25T03:49:44.952Z,994.51
2023-03-25T03:50:17.417Z,994.56
2023-03-25T03:50:49.836Z,994.57
2023-03-25T03:51:22.248Z,994.58
2023-03-25T03:51:54.698Z,994.54
2023-03-25T03:52:27.160Z,994.60
2023-03-25T03:53:00.237Z,994.60
2023-03-25T03:53:32.007Z,994.59
2023-03-25T03:54:04.495Z,994.60
2023-03-25T03:54:37.030Z,994.58
2023-03-25T03:55:09.486Z,994.58
2023-03-25T03:55:41.932Z,994.63
2023-03-25T03:56:14.370Z,994.57
2023-03-25T03:56:46.941Z,994.57
2023-03-25T03:57:19.262Z,994.61
2023-03-25T03:57:51.715Z,994.61
2023-03-25T03:58:24.147Z,994.59
2023-03-25T03:58:56.614Z,994.56
2023-03-25T03:59:29.063Z,994.59
2023-03-25T04:00:01.524Z,994.57
2023-03-25T04:00:34.044Z,994.60
2023-03-25T04:01:06.473Z,994.60
2023-03-25T04:01:38.965Z,994.65
2023-03-25T04:02:11.428Z,994.65
2023-03-25T04:02:43.919Z,994.61
2023-03-25T04:03:16.497Z,994.60
2023-03-25T04:03:48.894Z,994.62
2023-03-25T04:04:21.279Z,994.63
2023-03-25T04:04:53.831Z,994.61
2023-03-25T04:05:26.223Z,994.64
2023-03-25T04:05:58.652Z,994.65
2023-03-25T04:06:31.155Z,994.62
2023-03-25T04:07:03.682Z,994.64
2023-03-25T04:07:36.151Z,994.61
2023-03-25T04:08:08.608Z,994.61
2023-03-25T04:08:41.087Z,994.60
2023-03-25T04:09:13.557Z,994.60
2023-03-25T04:09:46.008Z,994.52
2023-03-25T04:10:18.475Z,994.59
2023-03-25T04:10:50.902Z,994.53
2023-03-25T04:11:23.335Z,994.52
2023-03-25T04:11:55.823Z,994.64
2023-03-25T04:12:28.298Z,994.59
2023-03-25T04:13:00.765Z,994.56
2023-03-25T04:13:33.299Z,994.59
2023-03-25T04:14:05.787Z,994.58
2023-03-25T04:14:38.238Z,994.60
2023-03-25T04:15:10.703Z,994.57
2023-03-25T04:15:43.178Z,994.56
2023-03-25T04:16:15.644Z,994.57
2023-03-25T04:16:48.076Z,994.55
2023-03-25T04:17:20.583Z,994.55
2023-03-25T04:17:53.083Z,994.56
2023-03-25T04:18:25.482Z,994.58
2023-03-25T04:18:57.947Z,994.59
2023-03-25T04:19:30.424Z,994.59
2023-03-25T04:20:02.853Z,994.50
2023-03-25T04:20:35.337Z,994.59
2023-03-25T04:21:07.775Z,994.64
2023-03-25T04:21:40.222Z,994.59
2023-03-25T04:22:12.673Z,994.63
2023-03-25T04:22:45.120Z,994.60
2023-03-25T04:23:17.562Z,994.55
2023-03-25T04:23:50.006Z,994.60
2023-03-25T04:24:22.469Z,994.61
2023-03-25T04:24:54.951Z,994.55
2023-03-25T04:25:27.357Z,994.60
2023-03-25T04:25:59.786Z,994.57
2023-03-25T04:26:32.232Z,994.58
2023-03-25T04:27:04.651Z,994.57
2023-03-25T04:27:37.138Z,994.62
2023-03-25T04:28:09.585Z,994.56
2023-03-25T04:28:42.030Z,994.59
2023-03-25T04:29:14.470Z,994.57
2023-03-25T04:29:46.941Z,994.57
2023-03-25T04:30:19.438Z,994.54
2023-03-25T04:30:51.880Z,994.56
2023-03-25T04:31:24.378Z,994.56
2023-03-25T04:31:56.810Z,994.60
2023-03-25T04:32:29.248Z,994.57
2023-03-25T04:33:01.788Z,994.53
2023-03-25T04:33:34.158Z,994.54
2023-03-25T04:34:06.652Z,994.58
2023-03-25T04:34:39.180Z,994.53
2023-03-25T04:35:11.621Z,994.56
2023-03-25T04:35:44.152Z,994.61
2023-03-25T04:36:16.639Z,994.54
2023-03-25T04:36:49.104Z,994.58
2023-03-25T04:37:21.566Z,994.58
2023-03-25T04:37:54.034Z,994.61
2023-03-25T04:38:26.504Z,994.62
2023-03-25T04:38:58.956Z,994.57
2023-03-25T04:39:31.442Z,994.64
2023-03-25T04:40:03.921Z,994.60
2023-03-25T04:40:36.398Z,994.56
2023-03-25T04:41:08.873Z,994.54
2023-03-25T04:41:41.351Z,994.58
2023-03-25T04:42:13.872Z,994.61
2023-03-25T04:42:46.298Z,994.54
2023-03-25T04:43:18.795Z,994.59
2023-03-25T04:43:51.268Z,994.58
2023-03-25T04:44:23.723Z,994.66
2023-03-25T04:44:56.194Z,994.57
2023-03-25T04:45:28.806Z,994.55
2023-03-25T04:46:01.125Z,994.53
2023-03-25T04:46:33.543Z,994.54
2023-03-25T04:47:05.975Z,994.57
2023-03-25T04:47:38.438Z,994.53
2023-03-25T04:48:10.906Z,994.53
2023-03-25T04:48:43.367Z,994.52
2023-03-25T04:49:15.837Z,994.56
2023-03-25T04:49:48.304Z,994.52
2023-03-25T04:50:20.754Z,994.53
2023-03-25T04:50:53.195Z,994.50
2023-03-25T04:51:25.660Z,994.46
2023-03-25T04:51:58.124Z,994.51
2023-03-25T04:52:30.591Z,994.51
2023-03-25T04:53:03.027Z,994.59
2023-03-25T04:53:35.466Z,994.56
2023-03-25T04:54:07.948Z,994.55
2023-03-25T04:54:40.369Z,994.54
2023-03-25T04:55:12.910Z,994.66
2023-03-25T04:55:45.412Z,994.61
2023-03-25T04:56:17.890Z,994.51
2023-03-25T04:56:50.365Z,994.58
2023-03-25T04:57:22.782Z,994.53
2023-03-25T04:57:55.256Z,994.54
2023-03-25T04:58:27.679Z,994.56
2023-03-25T04:59:00.160Z,994.60
2023-03-25T04:59:32.622Z,994.53
2023-03-25T05:00:05.102Z,994.54
2023-03-25T05:00:37.537Z,994.53
2023-03-25T05:01:10.107Z,994.61
2023-03-25T05:01:42.571Z,994.46
2023-03-25T05:02:14.960Z,994.50
2023-03-25T05:02:47.418Z,994.48
2023-03-25T05:03:19.851Z,994.56
2023-03-25T05:03:52.299Z,994.51
2023-03-25T05:04:24.871Z,994.47
2023-03-25T05:04:57.297Z,994.46
2023-03-25T05:05:29.775Z,994.49
2023-03-25T05:06:02.237Z,994.48
2023-03-25T05:06:34.710Z,994.49
2023-03-25T05:07:07.237Z,994.49
2023-03-25T05:07:39.726Z,994.56
2023-03-25T05:08:12.199Z,994.51
2023-03-25T05:08:44.647Z,994.46
2023-03-25T05:09:17.123Z,994.48
2023-03-25T05:09:49.540Z,994.45
2023-03-25T05:10:22.018Z,994.51
2023-03-25T05:10:54.449Z,994.38
2023-03-25T05:11:26.897Z,994.42
2023-03-25T05:11:59.333Z,994.40
2023-03-25T05:12:31.842Z,994.48
2023-03-25T05:13:04.349Z,994.49
2023-03-25T05:13:36.809Z,994.43
2023-03-25T05:14:09.316Z,994.47
2023-03-25T05:14:41.812Z,994.52
2023-03-25T05:15:14.288Z,994.52
2023-03-25T05:15:55.652Z,994.54
2023-03-25T05:16:28.098Z,994.50
2023-03-25T05:17:00.511Z,994.44
2023-03-25T05:17:32.972Z,994.50
2023-03-25T05:18:05.475Z,994.53
2023-03-25T05:18:37.904Z,994.57
2023-03-25T05:19:10.365Z,994.54
2023-03-25T05:19:42.891Z,994.44
2023-03-25T05:20:15.346Z,994.49
2023-03-25T05:20:47.828Z,994.44
2023-03-25T05:21:20.289Z,994.50
2023-03-25T05:21:52.787Z,994.48
2023-03-25T05:22:25.228Z,994.50
2023-03-25T05:22:57.714Z,994.62
2023-03-25T05:23:30.120Z,994.45
2023-03-25T05:24:02.579Z,994.57
2023-03-25T05:24:35.025Z,994.58
2023-03-25T05:25:07.437Z,994.58
2023-03-25T05:25:39.878Z,994.57
2023-03-25T05:26:12.344Z,994.46
2023-03-25T05:26:44.833Z,994.55
2023-03-25T05:27:17.273Z,994.50
2023-03-25T05:27:49.724Z,994.54
2023-03-25T05:28:22.255Z,994.51
2023-03-25T05:28:54.743Z,994.60
2023-03-25T05:29:27.225Z,994.55
2023-03-25T05:29:59.733Z,994.53
2023-03-25T05:30:32.259Z,994.57
2023-03-25T05:31:04.722Z,994.59
2023-03-25T05:31:37.297Z,994.48
2023-03-25T05:32:09.753Z,994.54
2023-03-25T05:32:42.154Z,994.54
2023-03-25T05:33:14.544Z,994.51
2023-03-25T05:33:47.010Z,994.57
2023-03-25T05:34:19.503Z,994.59
2023-03-25T05:34:51.938Z,994.49
2023-03-25T05:35:24.412Z,994.54
2023-03-25T05:35:57.006Z,994.58
2023-03-25T05:36:29.539Z,994.63
2023-03-25T05:37:01.992Z,994.60
2023-03-25T05:37:34.442Z,994.69
2023-03-25T05:38:06.888Z,994.58
2023-03-25T05:38:39.336Z,994.61
2023-03-25T05:39:11.793Z,994.60
2023-03-25T05:39:45.616Z,994.56
2023-03-25T05:40:16.743Z,994.65
2023-03-25T05:40:49.202Z,994.62
2023-03-25T05:41:21.658Z,994.58
2023-03-25T05:41:54.090Z,994.57
2023-03-25T05:42:26.553Z,994.61
2023-03-25T05:42:59.017Z,994.64
2023-03-25T05:43:31.484Z,994.61
2023-03-25T05:44:03.965Z,994.62
2023-03-25T05:44:36.428Z,994.65
2023-03-25T05:45:08.889Z,994.59
2023-03-25T05:45:41.375Z,994.63
2023-03-25T05:46:13.829Z,994.61
2023-03-25T05:46:46.301Z,994.64
2023-03-25T05:47:18.776Z,994.62
2023-03-25T05:47:51.363Z,994.67
2023-03-25T05:48:23.759Z,994.66
2023-03-25T05:48:56.303Z,994.62
2023-03-25T05:49:28.784Z,994.59
2023-03-25T05:50:01.268Z,994.61
2023-03-25T05:50:33.744Z,994.59
2023-03-25T05:51:06.200Z,994.60
2023-03-25T05:51:38.637Z,994.57
2023-03-25T05:52:11.111Z,994.56
2023-03-25T05:52:43.642Z,994.59
2023-03-25T05:53:16.088Z,994.60
2023-03-25T05:53:48.560Z,994.65
2023-03-25T05:54:20.994Z,994.59
2023-03-25T05:54:53.524Z,994.57
2023-03-25T05:55:25.971Z,994.61
2023-03-25T05:55:58.450Z,994.64
2023-03-25T05:56:30.987Z,994.63
2023-03-25T05:57:03.411Z,994.63
2023-03-25T05:57:35.880Z,994.66
2023-03-25T05:58:08.352Z,994.64
2023-03-25T05:58:40.827Z,994.67
2023-03-25T05:59:13.284Z,994.67
2023-03-25T05:59:45.761Z,994.71
2023-03-25T06:00:18.244Z,994.72
2023-03-25T06:00:50.693Z,994.64
2023-03-25T06:01:32.580Z,994.68
2023-03-25T06:01:55.628Z,994.63
2023-03-25T06:02:28.155Z,994.70
2023-03-25T06:03:00.546Z,994.67
2023-03-25T06:03:33.096Z,994.72
2023-03-25T06:04:05.521Z,994.70
2023-03-25T06:04:38.016Z,994.75
2023-03-25T06:05:10.394Z,994.70
2023-03-25T06:05:42.919Z,994.68
2023-03-25T06:06:15.376Z,994.70
2023-03-25T06:06:47.894Z,994.72
2023-03-25T06:07:20.368Z,994.70
2023-03-25T06:07:52.965Z,994.72
2023-03-25T06:08:25.467Z,994.73
2023-03-25T06:08:57.917Z,994.71
2023-03-25T06:09:30.411Z,994.69
2023-03-25T06:10:02.878Z,994.72
2023-03-25T06:10:35.311Z,994.67
2023-03-25T06:11:07.776Z,994.72
2023-03-25T06:11:40.231Z,994.67
2023-03-25T06:12:12.862Z,994.69
2023-03-25T06:12:45.301Z,994.73
2023-03-25T06:13:17.739Z,994.68
2023-03-25T06:13:50.276Z,994.69
2023-03-25T06:14:22.739Z,994.72
2023-03-25T06:14:55.241Z,994.65
2023-03-25T06:15:27.710Z,994.58
2023-03-25T06:16:00.299Z,994.59
2023-03-25T06:16:32.738Z,994.63
2023-03-25T06:17:05.312Z,994.72
2023-03-25T06:17:37.776Z,994.69
2023-03-25T06:18:10.436Z,994.69
2023-03-25T06:18:42.743Z,994.72
2023-03-25T06:19:15.207Z,994.71
2023-03-25T06:19:47.685Z,994.58
2023-03-25T06:20:20.161Z,994.61
2023-03-25T06:20:52.672Z,994.58
2023-03-25T06:21:25.135Z,994.67
2023-03-25T06:21:57.712Z,994.50
2023-03-25T06:22:30.246Z,994.57
2023-03-25T06:23:02.711Z,994.59
2023-03-25T06:23:35.213Z,994.63
2023-03-25T06:24:07.697Z,994.59
2023-03-25T06:24:40.171Z,994.65
2023-03-25T06:25:12.710Z,994.59
2023-03-25T06:25:45.139Z,994.61
2023-03-25T06:26:17.650Z,994.65
2023-03-25T06:26:50.132Z,994.71
2023-03-25T06:27:22.628Z,994.65
2023-03-25T06:27:55.084Z,994.69
2023-03-25T06:28:27.547Z,994.71
2023-03-25T06:29:00.031Z,994.70
2023-03-25T06:29:32.528Z,994.68
2023-03-25T06:30:05.000Z,994.70
2023-03-25T06:30:37.460Z,994.67
2023-03-25T06:31:09.902Z,994.70
2023-03-25T06:31:42.415Z,994.63
2023-03-25T06:32:14.830Z,994.73
2023-03-25T06:32:47.339Z,994.71
2023-03-25T06:33:42.328Z,994.72
2023-03-25T06:33:52.198Z,994.66
2023-03-25T06:34:24.677Z,994.69
2023-03-25T06:34:57.120Z,994.70
2023-03-25T06:35:29.600Z,994.71
2023-03-25T06:36:02.130Z,994.74
2023-03-25T06:36:34.518Z,994.68
2023-03-25T06:37:06.983Z,994.70
2023-03-25T06:37:39.436Z,994.78
2023-03-25T06:38:11.915Z,994.79
2023-03-25T06:38:44.428Z,994.71
2023-03-25T06:39:16.922Z,994.74
2023-03-25T06:39:49.407Z,994.72
2023-03-25T06:40:21.856Z,994.74
2023-03-25T06:40:54.346Z,994.80
2023-03-25T06:41:26.871Z,994.79
2023-03-25T06:41:59.350Z,994.79
2023-03-25T06:42:31.833Z,994.79
2023-03-25T06:43:04.280Z,994.79
2023-03-25T06:43:36.783Z,994.76
2023-03-25T06:44:09.201Z,994.81
2023-03-25T06:44:41.694Z,994.83
2023-03-25T06:45:14.212Z,994.78